createdAt,value
2022-10-20T00:00:23.148Z,2.47
2022-10-20T00:03:46.517Z,3.15
2022-10-20T00:07:08.632Z,2.72
2022-10-20T00:10:31.369Z,3.22
2022-10-20T00:13:55.404Z,3.05
2022-10-20T00:17:17.625Z,2.92
2022-10-20T00:20:40.374Z,3.00
2022-10-20T00:24:03.759Z,3.10
2022-10-20T00:27:25.929Z,3.10
2022-10-20T00:30:48.068Z,2.88
2022-10-20T00:34:10.819Z,2.88
2022-10-20T00:37:33.239Z,2.92
2022-10-20T00:40:55.462Z,3.35
2022-10-20T00:44:55.684Z,3.03
2022-10-20T00:48:22.483Z,3.03
2022-10-20T00:51:44.969Z,2.67
2022-10-20T00:55:09.815Z,2.80
2022-10-20T00:58:34.465Z,2.67
2022-10-20T01:01:57.832Z,2.83
2022-10-20T01:05:20.258Z,3.08
2022-10-20T01:08:42.771Z,3.20
2022-10-20T01:12:28.597Z,2.70
2022-10-20T01:15:56.449Z,3.10
2022-10-20T01:19:37.289Z,3.30
2022-10-20T01:23:02.143Z,2.65
2022-10-20T01:26:52.046Z,2.90
2022-10-20T01:30:22.902Z,2.63
2022-10-20T01:33:49.835Z,3.13
2022-10-20T01:37:28.454Z,2.60
2022-10-20T01:41:26.794Z,2.70
2022-10-20T01:44:51.341Z,3.13
2022-10-20T01:48:16.836Z,3.05
2022-10-20T01:51:39.108Z,2.22
2022-10-20T01:55:01.362Z,2.75
2022-10-20T01:58:29.454Z,2.53
2022-10-20T02:02:23.216Z,3.08
2022-10-20T02:05:48.501Z,2.70
2022-10-20T02:09:18.090Z,3.00
2022-10-20T02:12:43.883Z,2.53
2022-10-20T02:16:12.914Z,2.85
2022-10-20T02:19:39.619Z,2.83
2022-10-20T02:23:04.124Z,2.55
2022-10-20T02:26:26.505Z,2.80
2022-10-20T02:30:13.781Z,2.72
2022-10-20T02:33:36.289Z,2.97
2022-10-20T02:36:59.168Z,2.65
2022-10-20T02:40:22.290Z,2.85
2022-10-20T02:43:44.417Z,2.67
2022-10-20T02:47:06.606Z,2.55
2022-10-20T02:50:28.801Z,2.80
2022-10-20T02:53:50.909Z,2.40
2022-10-20T02:57:13.149Z,2.88
2022-10-20T03:00:35.532Z,2.58
2022-10-20T03:03:59.748Z,2.72
2022-10-20T03:07:21.999Z,2.83
2022-10-20T03:10:44.294Z,2.10
2022-10-20T03:14:06.471Z,2.35
2022-10-20T03:17:28.649Z,2.75
2022-10-20T03:20:52.249Z,2.67
2022-10-20T03:24:14.594Z,2.70
2022-10-20T03:27:37.116Z,2.17
2022-10-20T03:30:59.994Z,2.35
2022-10-20T03:34:22.276Z,2.40
2022-10-20T03:37:44.434Z,2.38
2022-10-20T03:41:06.593Z,2.20
2022-10-20T03:44:28.778Z,2.15
2022-10-20T03:47:50.974Z,2.33
2022-10-20T03:51:14.211Z,2.15
2022-10-20T03:54:36.904Z,2.42
2022-10-20T03:57:59.131Z,2.17
2022-10-20T04:01:31.890Z,2.65
2022-10-20T04:04:54.115Z,2.10
2022-10-20T04:08:16.262Z,2.13
2022-10-20T04:11:38.694Z,2.70
2022-10-20T04:15:00.875Z,2.00
2022-10-20T04:18:23.117Z,2.80
2022-10-20T04:21:45.290Z,2.03
2022-10-20T04:25:08.211Z,2.67
2022-10-20T04:28:30.324Z,2.90
2022-10-20T04:31:52.481Z,2.10
2022-10-20T04:35:14.667Z,2.67
2022-10-20T04:38:36.832Z,2.78
2022-10-20T04:41:59.788Z,2.22
2022-10-20T04:45:21.917Z,1.85
2022-10-20T04:48:44.782Z,2.30
2022-10-20T04:52:06.983Z,1.67
2022-10-20T04:55:29.081Z,1.98
2022-10-20T04:58:53.523Z,2.13
2022-10-20T05:02:15.751Z,1.70
2022-10-20T05:05:37.880Z,1.70
2022-10-20T05:09:03.071Z,1.80
2022-10-20T05:12:25.422Z,1.75
2022-10-20T05:15:52.875Z,1.73
2022-10-20T05:19:15.129Z,1.58
2022-10-20T05:22:37.673Z,1.92
2022-10-20T05:26:08.223Z,1.65
2022-10-20T05:29:30.394Z,2.05
2022-10-20T05:32:52.550Z,1.50
2022-10-20T05:36:19.466Z,1.50
2022-10-20T05:39:43.651Z,1.50
2022-10-20T05:43:05.798Z,1.48
2022-10-20T05:46:31.611Z,1.48
2022-10-20T05:49:53.727Z,1.75
2022-10-20T05:53:15.894Z,2.33
2022-10-20T05:56:38.095Z,3.13
2022-10-20T06:00:00.277Z,2.33
2022-10-20T06:03:24.887Z,2.70
2022-10-20T06:06:51.943Z,2.65
2022-10-20T06:10:14.123Z,1.83
2022-10-20T06:13:36.427Z,2.80
2022-10-20T06:16:58.646Z,2.75
2022-10-20T06:20:20.752Z,2.90
2022-10-20T06:23:43.263Z,2.67
2022-10-20T06:27:05.427Z,2.53
2022-10-20T06:30:27.662Z,2.90
2022-10-20T06:33:50.531Z,2.53
2022-10-20T06:37:13.305Z,2.30
2022-10-20T06:40:35.496Z,2.50
2022-10-20T06:44:00.861Z,2.38
2022-10-20T06:47:23.065Z,1.70
2022-10-20T06:50:45.198Z,2.40
2022-10-20T06:54:07.742Z,0.95
2022-10-20T06:57:32.334Z,1.85
2022-10-20T07:01:13.059Z,1.58
2022-10-20T07:04:35.161Z,1.60
2022-10-20T07:07:57.364Z,1.45
2022-10-20T07:11:22.002Z,1.30
2022-10-20T07:14:44.098Z,1.42
2022-10-20T07:18:06.342Z,1.23
2022-10-20T07:21:32.494Z,1.33
2022-10-20T07:24:59.437Z,1.50
2022-10-20T07:28:21.835Z,1.20
2022-10-20T07:31:46.039Z,1.02
2022-10-20T07:35:08.409Z,1.10
2022-10-20T07:38:30.609Z,1.25
2022-10-20T07:41:52.815Z,1.40
2022-10-20T07:45:15.140Z,1.17
2022-10-20T07:48:38.133Z,1.33
2022-10-20T07:52:00.286Z,0.85
2022-10-20T07:55:38.009Z,1.10
2022-10-20T07:59:01.290Z,0.95
2022-10-20T08:02:23.726Z,1.00
2022-10-20T08:05:45.873Z,1.20
2022-10-20T08:09:08.432Z,0.90
2022-10-20T08:12:30.615Z,1.00
2022-10-20T08:15:54.759Z,1.00
2022-10-20T08:22:53.032Z,0.82
2022-10-20T08:26:20.526Z,0.63
2022-10-20T08:29:50.675Z,0.65
2022-10-20T08:33:22.149Z,0.77
2022-10-20T08:36:44.293Z,0.60
2022-10-20T08:40:06.884Z,0.80
2022-10-20T08:43:31.726Z,0.70
2022-10-20T08:46:54.602Z,0.70
2022-10-20T08:50:19.434Z,0.60
2022-10-20T08:57:15.005Z,0.60
2022-10-20T09:00:38.633Z,0.40
2022-10-20T09:04:21.182Z,0.50
2022-10-20T09:07:43.277Z,0.43
2022-10-20T09:11:08.834Z,0.50
2022-10-20T09:14:33.701Z,0.60
2022-10-20T09:21:22.541Z,0.40
2022-10-20T09:24:46.105Z,0.70
2022-10-20T09:28:26.896Z,0.50
2022-10-20T09:31:52.410Z,0.52
2022-10-20T09:35:22.758Z,0.50
2022-10-20T09:38:50.801Z,0.63
2022-10-20T09:42:30.139Z,0.60
2022-10-20T09:46:00.485Z,0.60
2022-10-20T09:49:30.496Z,0.50
2022-10-20T09:52:53.177Z,0.60
2022-10-20T09:56:34.234Z,0.50
2022-10-20T10:00:01.305Z,0.50
2022-10-20T10:03:52.926Z,0.40
2022-10-20T10:07:27.061Z,0.40
2022-10-20T10:11:12.772Z,0.43
2022-10-20T10:14:36.370Z,0.50
2022-10-20T10:17:59.285Z,0.60
2022-10-20T10:21:22.191Z,0.40
2022-10-20T10:24:47.087Z,0.40
2022-10-20T10:28:30.884Z,0.40
2022-10-20T10:31:59.560Z,0.50
2022-10-20T10:35:40.062Z,0.25
2022-10-20T10:39:04.629Z,0.40
2022-10-20T10:42:33.518Z,0.40
2022-10-20T10:46:08.638Z,0.40
2022-10-20T10:49:52.438Z,0.40
2022-10-20T10:53:36.677Z,0.43
2022-10-20T10:57:32.373Z,0.35
2022-10-20T11:01:10.885Z,0.95
2022-10-20T11:05:03.867Z,0.52
2022-10-20T11:08:48.025Z,0.30
2022-10-20T11:12:28.393Z,0.47
2022-10-20T11:16:05.608Z,0.30
2022-10-20T11:19:39.250Z,0.50
2022-10-20T11:23:17.154Z,0.38
2022-10-20T11:26:46.304Z,0.60
2022-10-20T11:30:34.585Z,0.50
2022-10-20T11:34:23.094Z,0.30
2022-10-20T11:38:03.209Z,0.50
2022-10-20T11:41:49.320Z,0.40
2022-10-20T11:45:38.722Z,0.50
2022-10-20T11:49:03.977Z,0.50
2022-10-20T11:52:38.482Z,0.70
2022-10-20T11:56:25.701Z,0.32
2022-10-20T11:59:53.745Z,0.40
2022-10-20T12:03:30.667Z,0.60
2022-10-20T12:07:29.569Z,0.40
2022-10-20T12:10:56.625Z,0.30
2022-10-20T12:14:27.721Z,0.43
2022-10-20T12:17:52.680Z,0.52
2022-10-20T12:22:13.226Z,0.50
2022-10-20T12:25:38.573Z,0.70
2022-10-20T12:29:20.036Z,0.45
2022-10-20T12:32:58.365Z,0.47
2022-10-20T12:36:34.021Z,0.40
2022-10-20T12:40:01.612Z,0.50
2022-10-20T12:43:33.907Z,0.50
2022-10-20T12:47:03.857Z,0.40
2022-10-20T12:50:39.758Z,0.50
2022-10-20T12:54:34.758Z,0.50
2022-10-20T12:58:18.357Z,0.70
2022-10-20T13:02:08.389Z,0.45
2022-10-20T13:05:47.850Z,0.57
2022-10-20T13:09:20.984Z,0.50
2022-10-20T13:12:43.066Z,0.55
2022-10-20T13:16:15.473Z,0.50
2022-10-20T13:19:46.442Z,0.70
2022-10-20T13:23:18.452Z,0.52
2022-10-20T13:26:43.561Z,0.40
2022-10-20T13:30:10.226Z,0.63
2022-10-20T13:34:04.082Z,0.47
2022-10-20T13:37:43.939Z,0.57
2022-10-20T13:41:16.377Z,0.60
2022-10-20T13:44:57.148Z,0.40
2022-10-20T13:48:40.317Z,0.55
2022-10-20T13:52:16.207Z,0.52
2022-10-20T13:56:04.934Z,0.80
2022-10-20T13:59:30.085Z,0.43
2022-10-20T14:02:53.818Z,0.30
2022-10-20T14:06:37.246Z,0.40
2022-10-20T14:09:59.850Z,0.68
2022-10-20T14:13:25.387Z,0.50
2022-10-20T14:16:55.973Z,0.50
2022-10-20T14:20:20.482Z,0.50
2022-10-20T14:23:44.267Z,0.38
2022-10-20T14:27:17.278Z,0.50
2022-10-20T14:30:41.201Z,0.40
2022-10-20T14:34:03.591Z,0.60
2022-10-20T14:37:38.828Z,0.57
2022-10-20T14:41:03.104Z,0.35
2022-10-20T14:44:31.421Z,0.50
2022-10-20T14:47:56.319Z,0.55
2022-10-20T14:52:00.747Z,0.70
2022-10-20T14:55:30.520Z,0.50
2022-10-20T14:58:59.980Z,0.45
2022-10-20T15:02:30.518Z,0.50
2022-10-20T15:05:52.876Z,0.50
2022-10-20T15:09:31.882Z,0.40
2022-10-20T15:12:55.736Z,0.40
2022-10-20T15:16:33.014Z,0.57
2022-10-20T15:19:55.170Z,0.40
2022-10-20T15:23:25.838Z,0.45
2022-10-20T15:26:47.977Z,0.40
2022-10-20T15:30:18.334Z,0.63
2022-10-20T15:33:41.472Z,0.60
2022-10-20T15:37:03.815Z,0.60
2022-10-20T15:40:25.957Z,0.40
2022-10-20T15:43:48.496Z,0.55
2022-10-20T15:47:11.230Z,0.40
2022-10-20T15:50:33.555Z,0.60
2022-10-20T15:53:56.706Z,0.40
2022-10-20T15:57:18.891Z,0.68
2022-10-20T16:00:41.133Z,0.38
2022-10-20T16:04:16.645Z,0.63
2022-10-20T16:07:39.315Z,0.50
2022-10-20T16:11:04.686Z,0.60
2022-10-20T16:14:26.838Z,0.70
2022-10-20T16:21:16.179Z,0.80
2022-10-20T16:24:38.329Z,0.52
2022-10-20T16:28:00.493Z,0.65
2022-10-20T16:31:22.792Z,0.80
2022-10-20T16:34:45.078Z,0.70
2022-10-20T16:38:07.232Z,0.60
2022-10-20T16:41:29.382Z,1.00
2022-10-20T16:44:51.687Z,0.60
2022-10-20T16:48:13.795Z,1.00
2022-10-20T16:51:35.986Z,0.63
2022-10-20T16:54:58.193Z,0.82
2022-10-20T16:58:20.455Z,0.68
2022-10-20T17:01:44.592Z,0.70
2022-10-20T17:05:09.276Z,0.75
2022-10-20T17:11:54.322Z,0.88
2022-10-20T17:15:16.551Z,0.77
2022-10-20T17:18:38.855Z,0.75
2022-10-20T17:22:01.037Z,1.02
2022-10-20T17:25:23.366Z,1.45
2022-10-20T17:28:46.130Z,1.50
2022-10-20T17:32:08.292Z,1.35
2022-10-20T17:35:30.425Z,1.65
2022-10-20T17:39:02.761Z,1.13
2022-10-20T17:42:24.867Z,1.30
2022-10-20T17:45:57.782Z,1.30
2022-10-20T17:49:19.941Z,1.15
2022-10-20T17:52:42.115Z,1.17
2022-10-20T17:56:07.173Z,1.00
2022-10-20T18:03:04.573Z,1.10
2022-10-20T18:06:33.607Z,0.70
2022-10-20T18:09:56.385Z,0.93
2022-10-20T18:13:18.569Z,0.70
2022-10-20T18:16:40.953Z,1.00
2022-10-20T18:20:04.045Z,1.00
2022-10-20T18:23:27.835Z,1.13
2022-10-20T18:26:50.010Z,0.80
2022-10-20T18:30:12.114Z,0.93
2022-10-20T18:33:34.759Z,0.90
2022-10-20T18:36:57.049Z,0.80
2022-10-20T18:40:20.528Z,0.80
2022-10-20T18:43:45.396Z,1.00
2022-10-20T18:47:07.582Z,1.00
2022-10-20T18:50:30.023Z,0.85
2022-10-20T18:53:55.161Z,0.95
2022-10-20T19:00:39.331Z,1.00
2022-10-20T19:04:02.115Z,0.70
2022-10-20T19:07:24.284Z,0.73
2022-10-20T19:10:46.373Z,0.73
2022-10-20T19:14:09.845Z,0.77
2022-10-20T19:17:32.826Z,0.80
2022-10-20T19:21:00.202Z,0.95
2022-10-20T19:24:24.366Z,0.90
2022-10-20T19:27:46.540Z,1.03
2022-10-20T19:31:25.224Z,1.02
2022-10-20T19:34:47.335Z,0.82
2022-10-20T19:38:09.471Z,0.80
2022-10-20T19:41:31.672Z,1.00
2022-10-20T19:44:55.285Z,0.85
2022-10-20T19:48:17.528Z,0.70
2022-10-20T19:51:40.361Z,1.08
2022-10-20T19:55:02.530Z,0.98
2022-10-20T19:58:24.678Z,0.93
2022-10-20T20:01:49.525Z,1.00
2022-10-20T20:05:11.713Z,0.80
2022-10-20T20:08:34.957Z,0.70
2022-10-20T20:11:57.288Z,0.80
2022-10-20T20:15:19.558Z,0.80
2022-10-20T20:18:41.680Z,0.88
2022-10-20T20:22:03.959Z,0.90
2022-10-20T20:25:26.090Z,1.00
2022-10-20T20:28:48.493Z,0.95
2022-10-20T20:32:10.661Z,1.08
2022-10-20T20:35:32.979Z,1.08
2022-10-20T20:38:58.146Z,0.82
2022-10-20T20:42:20.539Z,0.65
2022-10-20T20:45:44.389Z,1.20
2022-10-20T20:49:06.793Z,0.93
2022-10-20T20:52:31.850Z,0.90
2022-10-20T20:59:16.747Z,0.95
2022-10-20T21:02:38.894Z,0.77
2022-10-20T21:06:19.213Z,0.85
2022-10-20T21:09:41.396Z,0.73
2022-10-20T21:13:03.844Z,0.75
2022-10-20T21:16:34.927Z,1.00
2022-10-20T21:19:57.611Z,1.00
2022-10-20T21:23:19.781Z,0.88
2022-10-20T21:26:42.117Z,1.10
2022-10-20T21:30:04.579Z,1.00
2022-10-20T21:33:26.696Z,1.02
2022-10-20T21:36:48.883Z,0.80
2022-10-20T21:40:11.427Z,0.90
2022-10-20T21:43:35.118Z,0.77
2022-10-20T21:46:57.354Z,0.82
2022-10-20T21:50:19.545Z,0.82
2022-10-20T21:53:41.841Z,0.80
2022-10-20T21:57:04.143Z,0.73
2022-10-20T22:00:26.252Z,1.08
2022-10-20T22:03:50.103Z,1.20
2022-10-20T22:07:12.285Z,0.70
2022-10-20T22:10:37.053Z,0.60
2022-10-20T22:14:02.430Z,0.90
2022-10-20T22:17:24.573Z,0.80
2022-10-20T22:20:46.734Z,0.95
2022-10-20T22:24:09.015Z,0.80
2022-10-20T22:27:41.711Z,0.90
2022-10-20T22:31:05.902Z,0.60
2022-10-20T22:34:28.147Z,0.60
2022-10-20T22:37:50.417Z,0.90
2022-10-20T22:41:13.252Z,0.80
2022-10-20T22:44:35.368Z,0.95
2022-10-20T22:47:57.641Z,0.70
2022-10-20T22:51:19.850Z,0.95
2022-10-20T22:54:42.069Z,0.82
2022-10-20T22:58:04.944Z,0.90
2022-10-20T23:01:27.272Z,0.80
2022-10-20T23:04:49.477Z,0.70
2022-10-20T23:08:11.669Z,0.90
2022-10-20T23:11:34.451Z,0.68
2022-10-20T23:14:56.889Z,0.88
2022-10-20T23:18:20.067Z,0.82
2022-10-20T23:21:42.195Z,0.63
2022-10-20T23:25:04.563Z,0.73
2022-10-20T23:28:26.734Z,0.63
2022-10-20T23:31:49.065Z,0.73
2022-10-20T23:35:11.277Z,0.80
2022-10-20T23:38:33.578Z,0.70
2022-10-20T23:41:55.845Z,0.95
2022-10-20T23:45:18.150Z,0.73
2022-10-20T23:48:40.730Z,0.88
2022-10-20T23:52:02.982Z,0.60
2022-10-20T23:55:25.162Z,0.65
2022-10-20T23:58:47.404Z,0.77
